sensor_id;sensor_type;location;lat;lon;timestamp;P1;durP1;ratioP1;P2;durP2;ratioP2
3653;SDS011;70277;54.302;10.064;2024-01-25T00:01:36;53.28;;;6.20;;
3653;SDS011;70277;54.302;10.064;2024-01-25T00:04:03;42.63;;;5.15;;
3653;SDS011;70277;54.302;10.064;2024-01-25T00:06:29;42.72;;;6.72;;
3653;SDS011;70277;54.302;10.064;2024-01-25T00:08:56;47.30;;;5.35;;
3653;SDS011;70277;54.302;10.064;2024-01-25T00:11:23;44.42;;;4.90;;
3653;SDS011;70277;54.302;10.064;2024-01-25T00:13:50;44.03;;;5.75;;
3653;SDS011;70277;54.302;10.064;2024-01-25T00:16:16;51.72;;;4.93;;
3653;SDS011;70277;54.302;10.064;2024-01-25T00:18:43;34.33;;;5.32;;
3653;SDS011;70277;54.302;10.064;2024-01-25T00:21:10;44.80;;;5.28;;
3653;SDS011;70277;54.302;10.064;2024-01-25T00:23:36;41.88;;;5.30;;
3653;SDS011;70277;54.302;10.064;2024-01-25T00:26:03;38.67;;;6.07;;
3653;SDS011;70277;54.302;10.064;2024-01-25T00:28:30;42.17;;;4.72;;
3653;SDS011;70277;54.302;10.064;2024-01-25T00:30:57;49.70;;;5.63;;
3653;SDS011;70277;54.302;10.064;2024-01-25T00:33:23;49.30;;;6.43;;
3653;SDS011;70277;54.302;10.064;2024-01-25T00:35:50;35.10;;;4.50;;
3653;SDS011;70277;54.302;10.064;2024-01-25T00:38:17;42.70;;;4.75;;
3653;SDS011;70277;54.302;10.064;2024-01-25T00:40:44;44.00;;;4.85;;
3653;SDS011;70277;54.302;10.064;2024-01-25T00:43:11;44.28;;;5.97;;
3653;SDS011;70277;54.302;10.064;2024-01-25T00:45:38;42.45;;;5.53;;
3653;SDS011;70277;54.302;10.064;2024-01-25T00:48:05;60.45;;;6.30;;
3653;SDS011;70277;54.302;10.064;2024-01-25T00:50:32;36.90;;;4.55;;
3653;SDS011;70277;54.302;10.064;2024-01-25T00:52:59;44.78;;;5.32;;
3653;SDS011;70277;54.302;10.064;2024-01-25T00:55:26;43.95;;;5.60;;
3653;SDS011;70277;54.302;10.064;2024-01-25T00:57:53;38.83;;;5.43;;
3653;SDS011;70277;54.302;10.064;2024-01-25T01:00:21;76.53;;;6.40;;
3653;SDS011;70277;54.302;10.064;2024-01-25T01:02:48;50.72;;;5.90;;
3653;SDS011;70277;54.302;10.064;2024-01-25T01:05:16;39.58;;;5.05;;
3653;SDS011;70277;54.302;10.064;2024-01-25T01:07:43;40.08;;;5.57;;
3653;SDS011;70277;54.302;10.064;2024-01-25T01:10:11;47.92;;;5.95;;
3653;SDS011;70277;54.302;10.064;2024-01-25T01:12:39;35.58;;;6.03;;
3653;SDS011;70277;54.302;10.064;2024-01-25T01:15:06;49.67;;;5.95;;
3653;SDS011;70277;54.302;10.064;2024-01-25T01:17:33;45.25;;;7.72;;
3653;SDS011;70277;54.302;10.064;2024-01-25T01:19:59;52.03;;;5.97;;
3653;SDS011;70277;54.302;10.064;2024-01-25T01:22:26;48.65;;;6.55;;
3653;SDS011;70277;54.302;10.064;2024-01-25T01:24:53;42.50;;;5.00;;
3653;SDS011;70277;54.302;10.064;2024-01-25T01:27:20;41.08;;;6.07;;
3653;SDS011;70277;54.302;10.064;2024-01-25T01:29:47;53.75;;;7.28;;
3653;SDS011;70277;54.302;10.064;2024-01-25T01:32:14;53.33;;;5.72;;
3653;SDS011;70277;54.302;10.064;2024-01-25T01:34:40;45.83;;;5.68;;
3653;SDS011;70277;54.302;10.064;2024-01-25T01:37:07;45.50;;;4.40;;
3653;SDS011;70277;54.302;10.064;2024-01-25T01:39:34;49.88;;;5.28;;
3653;SDS011;70277;54.302;10.064;2024-01-25T01:42:00;41.67;;;5.72;;
3653;SDS011;70277;54.302;10.064;2024-01-25T01:44:27;49.15;;;5.05;;
3653;SDS011;70277;54.302;10.064;2024-01-25T01:46:53;55.53;;;6.93;;
3653;SDS011;70277;54.302;10.064;2024-01-25T01:49:21;39.15;;;5.15;;
3653;SDS011;70277;54.302;10.064;2024-01-25T01:51:48;58.97;;;6.63;;
3653;SDS011;70277;54.302;10.064;2024-01-25T01:54:15;40.15;;;4.05;;
3653;SDS011;70277;54.302;10.064;2024-01-25T01:56:42;43.03;;;5.05;;
3653;SDS011;70277;54.302;10.064;2024-01-25T01:59:10;36.42;;;4.50;;
3653;SDS011;70277;54.302;10.064;2024-01-25T02:01:37;56.10;;;6.00;;
3653;SDS011;70277;54.302;10.064;2024-01-25T02:04:04;47.03;;;6.43;;
3653;SDS011;70277;54.302;10.064;2024-01-25T02:06:32;44.25;;;4.75;;
3653;SDS011;70277;54.302;10.064;2024-01-25T02:08:59;53.90;;;6.43;;
3653;SDS011;70277;54.302;10.064;2024-01-25T02:11:26;58.25;;;6.10;;
3653;SDS011;70277;54.302;10.064;2024-01-25T02:13:52;49.63;;;5.55;;
3653;SDS011;70277;54.302;10.064;2024-01-25T02:16:19;51.85;;;5.00;;
3653;SDS011;70277;54.302;10.064;2024-01-25T02:18:46;50.60;;;5.38;;
3653;SDS011;70277;54.302;10.064;2024-01-25T02:21:14;31.80;;;4.60;;
3653;SDS011;70277;54.302;10.064;2024-01-25T02:23:41;36.40;;;4.13;;
3653;SDS011;70277;54.302;10.064;2024-01-25T02:26:08;47.00;;;4.53;;
3653;SDS011;70277;54.302;10.064;2024-01-25T02:28:34;47.42;;;5.22;;
3653;SDS011;70277;54.302;10.064;2024-01-25T02:31:01;24.15;;;4.32;;
3653;SDS011;70277;54.302;10.064;2024-01-25T02:33:29;39.05;;;4.90;;
3653;SDS011;70277;54.302;10.064;2024-01-25T02:35:56;36.33;;;4.15;;
3653;SDS011;70277;54.302;10.064;2024-01-25T02:38:23;54.50;;;5.30;;
3653;SDS011;70277;54.302;10.064;2024-01-25T02:40:50;46.35;;;5.90;;
3653;SDS011;70277;54.302;10.064;2024-01-25T02:43:17;36.13;;;4.53;;
3653;SDS011;70277;54.302;10.064;2024-01-25T02:45:45;46.67;;;5.63;;
3653;SDS011;70277;54.302;10.064;2024-01-25T02:48:12;39.40;;;4.53;;
3653;SDS011;70277;54.302;10.064;2024-01-25T02:50:38;30.63;;;3.85;;
3653;SDS011;70277;54.302;10.064;2024-01-25T02:53:05;41.45;;;4.78;;
3653;SDS011;70277;54.302;10.064;2024-01-25T02:55:31;32.00;;;3.83;;
3653;SDS011;70277;54.302;10.064;2024-01-25T02:57:58;44.22;;;6.00;;
3653;SDS011;70277;54.302;10.064;2024-01-25T03:00:25;38.55;;;5.03;;
3653;SDS011;70277;54.302;10.064;2024-01-25T03:02:51;31.27;;;3.88;;
3653;SDS011;70277;54.302;10.064;2024-01-25T03:05:18;45.38;;;4.88;;
3653;SDS011;70277;54.302;10.064;2024-01-25T03:07:44;29.67;;;4.82;;
3653;SDS011;70277;54.302;10.064;2024-01-25T03:10:12;37.33;;;3.72;;
3653;SDS011;70277;54.302;10.064;2024-01-25T03:12:40;38.92;;;4.05;;
3653;SDS011;70277;54.302;10.064;2024-01-25T03:15:06;35.47;;;4.43;;
3653;SDS011;70277;54.302;10.064;2024-01-25T03:17:33;34.25;;;3.75;;
3653;SDS011;70277;54.302;10.064;2024-01-25T03:20:00;32.65;;;4.95;;
3653;SDS011;70277;54.302;10.064;2024-01-25T03:22:27;41.80;;;4.57;;
3653;SDS011;70277;54.302;10.064;2024-01-25T03:24:54;28.77;;;4.10;;
3653;SDS011;70277;54.302;10.064;2024-01-25T03:27:21;36.55;;;4.68;;
3653;SDS011;70277;54.302;10.064;2024-01-25T03:29:47;35.33;;;4.13;;
3653;SDS011;70277;54.302;10.064;2024-01-25T03:32:14;37.75;;;3.92;;
3653;SDS011;70277;54.302;10.064;2024-01-25T03:34:41;19.83;;;3.63;;
3653;SDS011;70277;54.302;10.064;2024-01-25T03:37:08;49.15;;;5.45;;
3653;SDS011;70277;54.302;10.064;2024-01-25T03:39:34;42.17;;;5.60;;
3653;SDS011;70277;54.302;10.064;2024-01-25T03:42:01;33.67;;;4.57;;
3653;SDS011;70277;54.302;10.064;2024-01-25T03:44:27;38.85;;;4.28;;
3653;SDS011;70277;54.302;10.064;2024-01-25T03:46:54;34.30;;;4.15;;
3653;SDS011;70277;54.302;10.064;2024-01-25T03:49:21;28.17;;;3.72;;
3653;SDS011;70277;54.302;10.064;2024-01-25T03:51:49;35.45;;;4.25;;
3653;SDS011;70277;54.302;10.064;2024-01-25T03:54:16;27.02;;;3.10;;
3653;SDS011;70277;54.302;10.064;2024-01-25T03:56:43;40.03;;;4.40;;
3653;SDS011;70277;54.302;10.064;2024-01-25T03:59:10;29.38;;;2.97;;
3653;SDS011;70277;54.302;10.064;2024-01-25T04:01:45;39.00;;;4.78;;
3653;SDS011;70277;54.302;10.064;2024-01-25T04:04:14;36.65;;;4.43;;
3653;SDS011;70277;54.302;10.064;2024-01-25T04:06:44;47.10;;;6.03;;
3653;SDS011;70277;54.302;10.064;2024-01-25T04:09:14;37.97;;;4.32;;
3653;SDS011;70277;54.302;10.064;2024-01-25T04:11:43;33.33;;;3.73;;
3653;SDS011;70277;54.302;10.064;2024-01-25T04:14:10;33.15;;;3.60;;
3653;SDS011;70277;54.302;10.064;2024-01-25T04:16:36;40.17;;;4.18;;
3653;SDS011;70277;54.302;10.064;2024-01-25T04:19:03;48.28;;;5.03;;
3653;SDS011;70277;54.302;10.064;2024-01-25T04:21:30;29.45;;;4.15;;
3653;SDS011;70277;54.302;10.064;2024-01-25T04:23:56;30.30;;;4.13;;
3653;SDS011;70277;54.302;10.064;2024-01-25T04:26:23;21.70;;;3.53;;
3653;SDS011;70277;54.302;10.064;2024-01-25T04:28:50;31.08;;;4.10;;
3653;SDS011;70277;54.302;10.064;2024-01-25T04:31:16;36.25;;;4.40;;
3653;SDS011;70277;54.302;10.064;2024-01-25T04:33:43;31.67;;;3.85;;
3653;SDS011;70277;54.302;10.064;2024-01-25T04:38:40;31.02;;;3.75;;
3653;SDS011;70277;54.302;10.064;2024-01-25T04:41:07;26.60;;;4.07;;
3653;SDS011;70277;54.302;10.064;2024-01-25T04:43:34;37.63;;;4.30;;
3653;SDS011;70277;54.302;10.064;2024-01-25T04:46:04;41.17;;;4.22;;
3653;SDS011;70277;54.302;10.064;2024-01-25T04:48:31;30.33;;;4.35;;
3653;SDS011;70277;54.302;10.064;2024-01-25T04:50:58;44.83;;;5.00;;
3653;SDS011;70277;54.302;10.064;2024-01-25T04:53:25;35.50;;;4.80;;
3653;SDS011;70277;54.302;10.064;2024-01-25T04:55:55;27.27;;;3.72;;
3653;SDS011;70277;54.302;10.064;2024-01-25T04:58:22;44.05;;;4.70;;
3653;SDS011;70277;54.302;10.064;2024-01-25T05:00:49;30.67;;;4.32;;
3653;SDS011;70277;54.302;10.064;2024-01-25T05:03:18;37.65;;;4.45;;
3653;SDS011;70277;54.302;10.064;2024-01-25T05:05:45;35.58;;;4.05;;
3653;SDS011;70277;54.302;10.064;2024-01-25T05:08:11;36.60;;;4.13;;
3653;SDS011;70277;54.302;10.064;2024-01-25T05:10:38;28.65;;;3.38;;
3653;SDS011;70277;54.302;10.064;2024-01-25T05:13:05;30.75;;;3.63;;
3653;SDS011;70277;54.302;10.064;2024-01-25T05:15:31;32.53;;;3.53;;
3653;SDS011;70277;54.302;10.064;2024-01-25T05:17:58;25.08;;;4.50;;
3653;SDS011;70277;54.302;10.064;2024-01-25T05:20:25;43.50;;;4.28;;
3653;SDS011;70277;54.302;10.064;2024-01-25T05:22:58;28.02;;;3.63;;
3653;SDS011;70277;54.302;10.064;2024-01-25T05:25:25;27.35;;;3.13;;
3653;SDS011;70277;54.302;10.064;2024-01-25T05:27:55;31.33;;;4.73;;
3653;SDS011;70277;54.302;10.064;2024-01-25T05:30:23;42.10;;;4.32;;
3653;SDS011;70277;54.302;10.064;2024-01-25T05:32:51;35.20;;;5.10;;
3653;SDS011;70277;54.302;10.064;2024-01-25T05:35:20;36.13;;;3.38;;
3653;SDS011;70277;54.302;10.064;2024-01-25T05:37:46;26.42;;;2.80;;
3653;SDS011;70277;54.302;10.064;2024-01-25T05:40:13;32.53;;;3.95;;
3653;SDS011;70277;54.302;10.064;2024-01-25T05:42:40;31.40;;;3.25;;
3653;SDS011;70277;54.302;10.064;2024-01-25T05:45:06;42.58;;;3.80;;
3653;SDS011;70277;54.302;10.064;2024-01-25T05:47:35;38.25;;;3.78;;
3653;SDS011;70277;54.302;10.064;2024-01-25T05:50:01;29.00;;;3.13;;
3653;SDS011;70277;54.302;10.064;2024-01-25T05:52:28;36.17;;;4.47;;
3653;SDS011;70277;54.302;10.064;2024-01-25T05:54:55;38.85;;;4.70;;
3653;SDS011;70277;54.302;10.064;2024-01-25T05:57:22;25.23;;;2.85;;
3653;SDS011;70277;54.302;10.064;2024-01-25T05:59:48;27.15;;;3.25;;
3653;SDS011;70277;54.302;10.064;2024-01-25T06:02:15;37.55;;;4.45;;
3653;SDS011;70277;54.302;10.064;2024-01-25T06:04:42;31.27;;;3.53;;
3653;SDS011;70277;54.302;10.064;2024-01-25T06:07:08;31.38;;;3.75;;
3653;SDS011;70277;54.302;10.064;2024-01-25T06:09:35;27.35;;;3.47;;
3653;SDS011;70277;54.302;10.064;2024-01-25T06:12:02;33.03;;;3.65;;
3653;SDS011;70277;54.302;10.064;2024-01-25T06:14:30;28.52;;;4.20;;
3653;SDS011;70277;54.302;10.064;2024-01-25T06:16:57;28.27;;;3.80;;
3653;SDS011;70277;54.302;10.064;2024-01-25T06:19:23;30.27;;;3.75;;
3653;SDS011;70277;54.302;10.064;2024-01-25T06:21:50;31.48;;;3.53;;
3653;SDS011;70277;54.302;10.064;2024-01-25T06:24:17;33.30;;;3.38;;
3653;SDS011;70277;54.302;10.064;2024-01-25T06:26:43;26.92;;;3.47;;
3653;SDS011;70277;54.302;10.064;2024-01-25T06:29:10;30.48;;;3.70;;
3653;SDS011;70277;54.302;10.064;2024-01-25T06:31:43;24.92;;;3.50;;
3653;SDS011;70277;54.302;10.064;2024-01-25T06:34:10;33.28;;;3.67;;
3653;SDS011;70277;54.302;10.064;2024-01-25T06:36:37;18.70;;;2.80;;
3653;SDS011;70277;54.302;10.064;2024-01-25T06:39:04;18.58;;;2.92;;
3653;SDS011;70277;54.302;10.064;2024-01-25T06:41:30;29.45;;;2.95;;
3653;SDS011;70277;54.302;10.064;2024-01-25T06:43:58;47.03;;;3.63;;
3653;SDS011;70277;54.302;10.064;2024-01-25T06:46:25;25.58;;;3.15;;
3653;SDS011;70277;54.302;10.064;2024-01-25T06:48:52;26.60;;;3.30;;
3653;SDS011;70277;54.302;10.064;2024-01-25T06:51:19;28.52;;;3.58;;
3653;SDS011;70277;54.302;10.064;2024-01-25T06:53:45;16.92;;;2.80;;
3653;SDS011;70277;54.302;10.064;2024-01-25T06:56:12;32.28;;;3.92;;
3653;SDS011;70277;54.302;10.064;2024-01-25T06:58:39;28.38;;;4.38;;
3653;SDS011;70277;54.302;10.064;2024-01-25T07:01:06;24.33;;;2.65;;
3653;SDS011;70277;54.302;10.064;2024-01-25T07:03:33;30.63;;;3.17;;
3653;SDS011;70277;54.302;10.064;2024-01-25T07:06:00;28.73;;;4.43;;
3653;SDS011;70277;54.302;10.064;2024-01-25T07:08:27;24.92;;;3.05;;
3653;SDS011;70277;54.302;10.064;2024-01-25T07:10:53;27.20;;;3.45;;
3653;SDS011;70277;54.302;10.064;2024-01-25T07:13:22;33.92;;;4.68;;
3653;SDS011;70277;54.302;10.064;2024-01-25T07:15:49;38.40;;;4.20;;
3653;SDS011;70277;54.302;10.064;2024-01-25T07:18:15;33.80;;;3.75;;
3653;SDS011;70277;54.302;10.064;2024-01-25T07:20:42;38.40;;;3.40;;
3653;SDS011;70277;54.302;10.064;2024-01-25T07:23:09;25.52;;;3.22;;
3653;SDS011;70277;54.302;10.064;2024-01-25T07:25:35;37.25;;;5.00;;
3653;SDS011;70277;54.302;10.064;2024-01-25T07:28:02;27.65;;;4.18;;
3653;SDS011;70277;54.302;10.064;2024-01-25T07:30:29;29.40;;;3.70;;
3653;SDS011;70277;54.302;10.064;2024-01-25T07:32:55;32.67;;;4.20;;
3653;SDS011;70277;54.302;10.064;2024-01-25T07:35:22;29.40;;;3.03;;
3653;SDS011;70277;54.302;10.064;2024-01-25T07:37:50;34.58;;;4.03;;
3653;SDS011;70277;54.302;10.064;2024-01-25T07:40:16;25.25;;;2.80;;
3653;SDS011;70277;54.302;10.064;2024-01-25T07:42:43;24.40;;;3.28;;
3653;SDS011;70277;54.302;10.064;2024-01-25T07:45:10;26.17;;;3.03;;
3653;SDS011;70277;54.302;10.064;2024-01-25T07:47:42;29.83;;;3.60;;
3653;SDS011;70277;54.302;10.064;2024-01-25T07:50:10;26.83;;;3.17;;
3653;SDS011;70277;54.302;10.064;2024-01-25T07:52:37;20.88;;;2.67;;
3653;SDS011;70277;54.302;10.064;2024-01-25T07:55:03;30.70;;;3.45;;
3653;SDS011;70277;54.302;10.064;2024-01-25T07:57:32;22.77;;;2.95;;
3653;SDS011;70277;54.302;10.064;2024-01-25T07:59:58;37.40;;;3.33;;
3653;SDS011;70277;54.302;10.064;2024-01-25T08:02:25;24.15;;;2.97;;
3653;SDS011;70277;54.302;10.064;2024-01-25T08:04:52;28.25;;;3.83;;
3653;SDS011;70277;54.302;10.064;2024-01-25T08:07:19;27.35;;;3.28;;
3653;SDS011;70277;54.302;10.064;2024-01-25T08:09:46;29.85;;;4.00;;
3653;SDS011;70277;54.302;10.064;2024-01-25T08:12:13;21.02;;;3.10;;
3653;SDS011;70277;54.302;10.064;2024-01-25T08:14:40;31.73;;;3.83;;
3653;SDS011;70277;54.302;10.064;2024-01-25T08:17:09;41.83;;;4.05;;
3653;SDS011;70277;54.302;10.064;2024-01-25T08:19:36;28.02;;;4.45;;
3653;SDS011;70277;54.302;10.064;2024-01-25T08:22:03;26.92;;;2.78;;
3653;SDS011;70277;54.302;10.064;2024-01-25T08:24:29;30.38;;;3.90;;
3653;SDS011;70277;54.302;10.064;2024-01-25T08:26:57;36.42;;;3.60;;
3653;SDS011;70277;54.302;10.064;2024-01-25T08:29:23;24.40;;;3.35;;
3653;SDS011;70277;54.302;10.064;2024-01-25T08:31:50;20.15;;;2.58;;
3653;SDS011;70277;54.302;10.064;2024-01-25T08:34:16;36.28;;;3.88;;
3653;SDS011;70277;54.302;10.064;2024-01-25T08:36:43;32.22;;;3.13;;
3653;SDS011;70277;54.302;10.064;2024-01-25T08:39:09;27.10;;;3.65;;
3653;SDS011;70277;54.302;10.064;2024-01-25T08:41:36;22.83;;;3.17;;
3653;SDS011;70277;54.302;10.064;2024-01-25T08:44:06;23.13;;;3.40;;
3653;SDS011;70277;54.302;10.064;2024-01-25T08:46:33;36.10;;;4.15;;
3653;SDS011;70277;54.302;10.064;2024-01-25T08:49:00;24.58;;;3.03;;
3653;SDS011;70277;54.302;10.064;2024-01-25T08:51:26;27.38;;;4.18;;
3653;SDS011;70277;54.302;10.064;2024-01-25T08:53:53;25.58;;;3.05;;
3653;SDS011;70277;54.302;10.064;2024-01-25T08:56:20;31.60;;;3.17;;
3653;SDS011;70277;54.302;10.064;2024-01-25T08:58:46;35.60;;;4.63;;
3653;SDS011;70277;54.302;10.064;2024-01-25T09:01:14;42.67;;;5.00;;
3653;SDS011;70277;54.302;10.064;2024-01-25T09:03:41;29.92;;;2.65;;
3653;SDS011;70277;54.302;10.064;2024-01-25T09:06:08;28.65;;;3.47;;
3653;SDS011;70277;54.302;10.064;2024-01-25T09:08:34;31.25;;;3.35;;
3653;SDS011;70277;54.302;10.064;2024-01-25T09:11:01;30.48;;;4.50;;
3653;SDS011;70277;54.302;10.064;2024-01-25T09:13:28;21.48;;;3.05;;
3653;SDS011;70277;54.302;10.064;2024-01-25T09:15:55;17.95;;;2.65;;
3653;SDS011;70277;54.302;10.064;2024-01-25T09:18:22;19.60;;;2.75;;
3653;SDS011;70277;54.302;10.064;2024-01-25T09:20:48;19.10;;;2.83;;
3653;SDS011;70277;54.302;10.064;2024-01-25T09:23:15;25.15;;;5.00;;
3653;SDS011;70277;54.302;10.064;2024-01-25T09:25:43;30.85;;;3.42;;
3653;SDS011;70277;54.302;10.064;2024-01-25T09:28:11;27.80;;;3.03;;
3653;SDS011;70277;54.302;10.064;2024-01-25T09:30:38;24.70;;;4.05;;
3653;SDS011;70277;54.302;10.064;2024-01-25T09:33:06;23.83;;;3.30;;
3653;SDS011;70277;54.302;10.064;2024-01-25T09:35:33;26.65;;;3.17;;
3653;SDS011;70277;54.302;10.064;2024-01-25T09:38:00;32.88;;;3.80;;
3653;SDS011;70277;54.302;10.064;2024-01-25T09:40:27;21.10;;;3.40;;
3653;SDS011;70277;54.302;10.064;2024-01-25T09:42:54;25.20;;;3.85;;
3653;SDS011;70277;54.302;10.064;2024-01-25T09:45:21;31.58;;;4.50;;
3653;SDS011;70277;54.302;10.064;2024-01-25T09:47:50;31.00;;;3.33;;
3653;SDS011;70277;54.302;10.064;2024-01-25T09:50:17;27.95;;;4.15;;
3653;SDS011;70277;54.302;10.064;2024-01-25T09:52:44;24.48;;;4.13;;
3653;SDS011;70277;54.302;10.064;2024-01-25T09:55:14;17.80;;;3.35;;
3653;SDS011;70277;54.302;10.064;2024-01-25T09:57:45;16.08;;;2.42;;
3653;SDS011;70277;54.302;10.064;2024-01-25T10:00:14;36.63;;;3.55;;
3653;SDS011;70277;54.302;10.064;2024-01-25T10:02:41;33.60;;;3.40;;
3653;SDS011;70277;54.302;10.064;2024-01-25T10:05:08;32.70;;;5.78;;
3653;SDS011;70277;54.302;10.064;2024-01-25T10:07:35;24.98;;;2.85;;
3653;SDS011;70277;54.302;10.064;2024-01-25T10:10:13;27.60;;;3.85;;
3653;SDS011;70277;54.302;10.064;2024-01-25T10:12:40;36.63;;;3.75;;
3653;SDS011;70277;54.302;10.064;2024-01-25T10:15:09;22.98;;;3.70;;
3653;SDS011;70277;54.302;10.064;2024-01-25T10:17:36;24.48;;;2.83;;
3653;SDS011;70277;54.302;10.064;2024-01-25T10:20:23;19.50;;;2.95;;
3653;SDS011;70277;54.302;10.064;2024-01-25T10:22:52;24.23;;;3.15;;
3653;SDS011;70277;54.302;10.064;2024-01-25T10:27:49;39.08;;;4.00;;
3653;SDS011;70277;54.302;10.064;2024-01-25T10:30:16;29.40;;;2.97;;
3653;SDS011;70277;54.302;10.064;2024-01-25T10:32:44;27.95;;;3.22;;
3653;SDS011;70277;54.302;10.064;2024-01-25T10:35:13;20.40;;;2.90;;
3653;SDS011;70277;54.302;10.064;2024-01-25T10:37:43;21.00;;;3.40;;
3653;SDS011;70277;54.302;10.064;2024-01-25T10:40:11;35.38;;;4.00;;
3653;SDS011;70277;54.302;10.064;2024-01-25T10:42:40;24.83;;;3.33;;
3653;SDS011;70277;54.302;10.064;2024-01-25T10:45:07;25.70;;;2.67;;
3653;SDS011;70277;54.302;10.064;2024-01-25T10:47:35;28.70;;;3.13;;
3653;SDS011;70277;54.302;10.064;2024-01-25T10:50:02;27.38;;;3.38;;
3653;SDS011;70277;54.302;10.064;2024-01-25T10:52:29;26.45;;;3.72;;
3653;SDS011;70277;54.302;10.064;2024-01-25T10:54:58;22.83;;;2.97;;
3653;SDS011;70277;54.302;10.064;2024-01-25T10:57:25;20.33;;;3.78;;
3653;SDS011;70277;54.302;10.064;2024-01-25T10:59:51;20.92;;;3.13;;
3653;SDS011;70277;54.302;10.064;2024-01-25T11:02:18;26.85;;;3.47;;
3653;SDS011;70277;54.302;10.064;2024-01-25T11:04:53;22.88;;;2.90;;
3653;SDS011;70277;54.302;10.064;2024-01-25T11:07:21;22.38;;;3.80;;
3653;SDS011;70277;54.302;10.064;2024-01-25T11:09:50;19.75;;;3.00;;
3653;SDS011;70277;54.302;10.064;2024-01-25T11:12:18;22.75;;;3.17;;
3653;SDS011;70277;54.302;10.064;2024-01-25T11:14:53;27.38;;;3.30;;
3653;SDS011;70277;54.302;10.064;2024-01-25T11:17:20;20.55;;;3.40;;
3653;SDS011;70277;54.302;10.064;2024-01-25T11:19:48;27.52;;;3.40;;
3653;SDS011;70277;54.302;10.064;2024-01-25T11:22:16;26.05;;;3.35;;
3653;SDS011;70277;54.302;10.064;2024-01-25T11:24:44;26.92;;;2.92;;
3653;SDS011;70277;54.302;10.064;2024-01-25T11:27:12;21.67;;;2.88;;
3653;SDS011;70277;54.302;10.064;2024-01-25T11:29:39;24.35;;;2.92;;
3653;SDS011;70277;54.302;10.064;2024-01-25T11:32:11;28.17;;;3.50;;
3653;SDS011;70277;54.302;10.064;2024-01-25T11:34:38;22.73;;;3.72;;
3653;SDS011;70277;54.302;10.064;2024-01-25T11:37:05;20.60;;;2.85;;
3653;SDS011;70277;54.302;10.064;2024-01-25T11:39:31;23.98;;;3.90;;
3653;SDS011;70277;54.302;10.064;2024-01-25T11:41:58;38.75;;;4.75;;
3653;SDS011;70277;54.302;10.064;2024-01-25T11:44:25;34.83;;;4.00;;
3653;SDS011;70277;54.302;10.064;2024-01-25T11:46:53;21.05;;;2.70;;
3653;SDS011;70277;54.302;10.064;2024-01-25T11:49:23;29.30;;;3.13;;
3653;SDS011;70277;54.302;10.064;2024-01-25T11:51:50;15.27;;;3.10;;
3653;SDS011;70277;54.302;10.064;2024-01-25T11:54:17;27.42;;;2.67;;
3653;SDS011;70277;54.302;10.064;2024-01-25T11:56:44;27.70;;;3.03;;
3653;SDS011;70277;54.302;10.064;2024-01-25T11:59:11;23.55;;;3.38;;
3653;SDS011;70277;54.302;10.064;2024-01-25T12:01:38;29.40;;;3.50;;
3653;SDS011;70277;54.302;10.064;2024-01-25T12:04:07;20.90;;;2.42;;
3653;SDS011;70277;54.302;10.064;2024-01-25T12:06:34;21.15;;;3.35;;
3653;SDS011;70277;54.302;10.064;2024-01-25T12:09:10;16.08;;;3.00;;
3653;SDS011;70277;54.302;10.064;2024-01-25T12:11:40;21.88;;;3.88;;
3653;SDS011;70277;54.302;10.064;2024-01-25T12:14:10;25.70;;;2.70;;
3653;SDS011;70277;54.302;10.064;2024-01-25T12:16:37;18.27;;;3.00;;
3653;SDS011;70277;54.302;10.064;2024-01-25T12:19:05;26.33;;;3.70;;
3653;SDS011;70277;54.302;10.064;2024-01-25T12:21:33;26.40;;;3.35;;
3653;SDS011;70277;54.302;10.064;2024-01-25T12:24:00;23.85;;;3.33;;
3653;SDS011;70277;54.302;10.064;2024-01-25T12:26:27;28.02;;;4.05;;
3653;SDS011;70277;54.302;10.064;2024-01-25T12:28:54;29.88;;;3.50;;
3653;SDS011;70277;54.302;10.064;2024-01-25T12:31:20;22.70;;;2.95;;
3653;SDS011;70277;54.302;10.064;2024-01-25T12:33:47;25.10;;;3.08;;
3653;SDS011;70277;54.302;10.064;2024-01-25T12:36:14;26.00;;;3.30;;
3653;SDS011;70277;54.302;10.064;2024-01-25T12:38:40;23.50;;;3.05;;
3653;SDS011;70277;54.302;10.064;2024-01-25T12:41:07;24.60;;;3.00;;
3653;SDS011;70277;54.302;10.064;2024-01-25T12:43:34;24.35;;;3.33;;
3653;SDS011;70277;54.302;10.064;2024-01-25T12:46:01;32.13;;;3.50;;
3653;SDS011;70277;54.302;10.064;2024-01-25T12:48:43;21.83;;;3.13;;
3653;SDS011;70277;54.302;10.064;2024-01-25T12:51:13;40.03;;;3.67;;
3653;SDS011;70277;54.302;10.064;2024-01-25T12:53:40;34.50;;;4.32;;
3653;SDS011;70277;54.302;10.064;2024-01-25T12:56:06;33.65;;;3.28;;
3653;SDS011;70277;54.302;10.064;2024-01-25T12:58:33;20.50;;;2.45;;
3653;SDS011;70277;54.302;10.064;2024-01-25T13:01:00;20.27;;;3.00;;
3653;SDS011;70277;54.302;10.064;2024-01-25T13:03:27;32.17;;;3.22;;
3653;SDS011;70277;54.302;10.064;2024-01-25T13:05:53;26.67;;;2.92;;
3653;SDS011;70277;54.302;10.064;2024-01-25T13:08:21;34.40;;;3.85;;
3653;SDS011;70277;54.302;10.064;2024-01-25T13:10:47;22.85;;;3.08;;
3653;SDS011;70277;54.302;10.064;2024-01-25T13:13:14;23.55;;;3.25;;
3653;SDS011;70277;54.302;10.064;2024-01-25T13:15:40;25.85;;;3.75;;
3653;SDS011;70277;54.302;10.064;2024-01-25T13:18:07;22.88;;;4.40;;
3653;SDS011;70277;54.302;10.064;2024-01-25T13:20:33;20.52;;;2.45;;
3653;SDS011;70277;54.302;10.064;2024-01-25T13:23:00;19.05;;;2.58;;
3653;SDS011;70277;54.302;10.064;2024-01-25T13:25:26;24.58;;;3.38;;
3653;SDS011;70277;54.302;10.064;2024-01-25T13:27:53;27.67;;;3.80;;
3653;SDS011;70277;54.302;10.064;2024-01-25T13:30:20;24.27;;;2.80;;
3653;SDS011;70277;54.302;10.064;2024-01-25T13:32:46;31.55;;;3.13;;
3653;SDS011;70277;54.302;10.064;2024-01-25T13:35:14;27.98;;;3.97;;
3653;SDS011;70277;54.302;10.064;2024-01-25T13:37:40;32.78;;;3.97;;
3653;SDS011;70277;54.302;10.064;2024-01-25T13:40:07;32.33;;;3.58;;
3653;SDS011;70277;54.302;10.064;2024-01-25T13:42:34;24.42;;;3.67;;
3653;SDS011;70277;54.302;10.064;2024-01-25T13:45:00;27.90;;;4.05;;
3653;SDS011;70277;54.302;10.064;2024-01-25T13:47:27;25.23;;;3.42;;
3653;SDS011;70277;54.302;10.064;2024-01-25T13:49:54;25.00;;;3.17;;
3653;SDS011;70277;54.302;10.064;2024-01-25T13:52:21;23.17;;;2.50;;
3653;SDS011;70277;54.302;10.064;2024-01-25T13:54:48;19.45;;;2.60;;
3653;SDS011;70277;54.302;10.064;2024-01-25T13:57:17;20.55;;;3.55;;
3653;SDS011;70277;54.302;10.064;2024-01-25T13:59:46;32.88;;;3.55;;
3653;SDS011;70277;54.302;10.064;2024-01-25T14:02:13;28.25;;;3.63;;
3653;SDS011;70277;54.302;10.064;2024-01-25T14:04:39;19.33;;;2.53;;
3653;SDS011;70277;54.302;10.064;2024-01-25T14:07:07;15.32;;;2.30;;
3653;SDS011;70277;54.302;10.064;2024-01-25T14:09:33;28.50;;;3.13;;
3653;SDS011;70277;54.302;10.064;2024-01-25T14:12:01;21.70;;;2.53;;
3653;SDS011;70277;54.302;10.064;2024-01-25T14:14:27;28.83;;;3.60;;
3653;SDS011;70277;54.302;10.064;2024-01-25T14:16:54;20.40;;;2.70;;
3653;SDS011;70277;54.302;10.064;2024-01-25T14:19:21;30.50;;;3.25;;
3653;SDS011;70277;54.302;10.064;2024-01-25T14:21:48;25.67;;;3.08;;
3653;SDS011;70277;54.302;10.064;2024-01-25T14:24:36;26.70;;;2.92;;
3653;SDS011;70277;54.302;10.064;2024-01-25T14:27:03;24.30;;;3.72;;
3653;SDS011;70277;54.302;10.064;2024-01-25T14:29:30;27.80;;;2.85;;
3653;SDS011;70277;54.302;10.064;2024-01-25T14:31:59;28.30;;;3.35;;
3653;SDS011;70277;54.302;10.064;2024-01-25T14:34:29;35.00;;;3.50;;
3653;SDS011;70277;54.302;10.064;2024-01-25T14:36:56;32.33;;;3.45;;
3653;SDS011;70277;54.302;10.064;2024-01-25T14:39:22;34.92;;;3.72;;